Date,TemperatureHighF,TemperatureAvgF,TemperatureLowF,DewpointHighF,DewpointAvgF,DewpointLowF,HumidityHigh,HumidityAvg,HumidityLow,PressureMaxIn,PressureMinIn,WindSpeedMaxMPH,WindSpeedAvgMPH,GustSpeedMaxMPH,PrecipitationSumIn
2013-1-1,47.6,44.0,41.1,47.6,40.1,-99.9,100,95,1,29.99,29.83,22,1,22,0.00
2013-1-2,41.8,37.3,28.2,41.6,29.8,-99.9,100,91,1,30.13,29.89,11,0,11,0.00
2013-1-3,42.9,30.8,24.2,40.9,20.9,-99.9,100,81,1,30.18,30.08,11,0,11,0.00
2013-1-4,41.9,33.9,26.9,40.5,9.5,-99.9,100,74,1,30.22,30.11,19,1,19,0.00
2013-1-5,48.6,35.5,22.5,43.1,11.2,-99.9,100,65,1,30.35,30.12,12,0,12,0.00
2013-1-6,45.7,38.9,28.2,42.8,-1.2,-99.9,100,55,1,30.12,29.99,17,1,17,0.03
2013-1-7,46.0,35.3,23.3,45.8,21.8,-99.9,100,80,1,30.39,30.08,13,0,13,0.00
2013-1-8,54.1,28.3,19.2,54.1,10.5,-99.9,100,83,1,30.41,30.27,10,-117,10,0.00
2013-1-9,58.4,42.0,25.3,58.4,39.1,-99.9,100,95,1,30.37,30.25,19,1,19,0.00
2013-1-10,53.1,41.6,31.6,53.1,28.8,-99.9,100,87,1,30.50,30.34,5,0,5,0.00
2013-1-11,42.8,40.6,35.0,42.8,13.8,-99.9,100,73,1,30.37,30.06,6,0,6,0.04
2013-1-12,65.5,48.4,39.2,65.5,42.8,-99.9,100,95,1,30.11,30.00,3,0,3,0.00
2013-1-13,67.9,53.9,43.6,67.9,22.8,-99.9,100,80,1,30.02,29.89,11,0,11,0.00
2013-1-14,62.1,52.5,41.2,62.1,34.4,-99.9,100,79,1,30.19,29.89,17,-9,17,0.29
2013-1-15,41.5,39.8,37.0,41.3,39.8,35.9,100,100,100,30.23,30.03,12,1,12,1.11
2013-1-16,44.9,41.4,38.5,44.6,41.4,38.5,100,100,100,30.05,29.83,8,0,8,0.40
2013-1-17,45.2,36.8,31.9,45.1,36.8,31.9,100,100,100,30.08,29.93,10,0,10,0.47
2013-1-18,41.8,31.0,23.3,41.8,30.0,3.1,100,97,33,30.44,30.08,7,0,7,0.42
2013-1-19,50.2,32.4,19.2,49.9,-5.3,-99.9,100,58,1,30.39,30.01,13,0,13,0.08
2013-1-20,55.9,37.3,28.2,55.7,12.2,-99.9,100,70,1,30.00,29.86,18,-116,18,0.00
2013-1-21,52.2,36.5,23.6,43.3,3.7,-99.9,100,48,1,30.03,29.76,32,2,32,0.00
2013-1-22,28.2,20.2,16.2,7.2,-30.9,-99.9,50,17,1,30.22,29.90,24,-43,24,0.00
2013-1-23,32.7,19.0,10.9,27.6,-38.1,-99.9,100,32,1,30.29,29.93,14,-172,14,0.00
2013-1-24,28.7,20.0,11.6,28.7,-29.9,-99.9,100,35,1,30.49,29.94,18,-140,18,0.00
2013-1-25,26.9,17.5,11.9,26.6,-4.5,-99.9,100,68,1,30.47,29.97,16,-93,16,0.00
2013-1-26,38.6,31.6,21.1,37.8,-12.5,-99.9,100,50,1,30.37,29.97,10,1,16,0.04
2013-1-27,38.6,24.0,14.8,31.8,-3.5,-99.9,100,73,1,30.53,30.38,14,-79,14,0.00
2013-1-28,52.6,28.9,31.5,52.6,-21.7,-99.9,100,52,1,30.38,30.06,9,-234,9,0.19
2013-1-29,76.8,56.4,42.3,76.7,40.7,-99.9,100,86,1,30.08,29.87,12,1,12,0.00
2013-1-30,67.8,56.1,48.9,67.8,41.2,-99.9,100,86,1,29.87,29.20,28,-42,28,2.10
2013-1-31,49.6,37.3,31.2,49.5,27.6,-99.9,100,90,1,29.85,29.21,32,4,32,0.10
2013-2-1,34.3,24.5,15.4,34.3,15.6,-99.9,100,79,1,30.34,29.72,26,2,26,0.00
2013-2-2,34.0,21.8,11.7,32.4,2.3,-99.9,100,77,1,30.33,29.92,13,-44,13,0.00
2013-2-3,37.8,32.3,27.9,37.8,-5.7,-99.9,100,62,1,29.93,29.76,22,2,22,0.02
2013-2-4,37.6,20.4,20.6,37.6,-15.2,-99.9,100,62,1,30.05,29.79,18,-293,18,0.00
2013-2-5,50.5,39.6,30.0,50.5,27.7,-99.9,100,84,1,29.85,29.77,16,1,16,0.00
2013-2-6,53.1,39.8,26.7,49.9,16.0,-99.9,100,73,1,30.26,29.85,17,1,17,0.00
2013-2-7,39.8,33.9,26.0,38.1,31.5,22.6,100,92,53,30.32,30.06,6,0,6,0.00
2013-2-8,49.6,28.7,32.7,49.6,-21.5,-99.9,100,58,1,30.06,29.72,24,-211,24,0.13
2013-2-9,51.0,32.7,23.2,34.7,-1.0,-99.9,100,64,1,30.31,29.95,17,-54,17,0.00
2013-2-10,44.5,24.4,27.0,39.8,-21.4,-99.9,100,42,1,30.42,30.13,12,-381,12,0.03
2013-2-11,63.2,48.6,36.3,63.2,13.2,-99.9,100,66,1,30.13,29.72,25,2,25,0.00
2013-2-12,60.7,47.9,39.8,30.3,-25.5,-99.9,65,20,1,29.93,29.76,21,2,21,0.00
2013-2-13,44.1,38.3,33.4,43.5,14.0,-99.9,100,74,1,29.86,29.55,11,0,11,0.04
2013-2-14,51.7,37.2,26.4,47.1,24.2,-99.9,100,77,1,29.97,29.75,12,1,12,0.00
2013-2-15,57.5,37.8,22.5,54.2,24.4,-99.9,100,79,1,30.03,29.81,18,1,18,0.01
2013-2-16,37.6,33.7,26.1,37.5,7.5,-99.9,100,72,1,29.91,29.76,17,1,17,0.01
2013-2-17,30.7,23.2,16.1,25.7,-13.5,-99.9,100,37,1,30.19,29.84,21,1,21,0.01
2013-2-18,51.3,28.2,10.0,30.0,-25.6,-99.9,100,49,1,30.33,30.08,14,0,14,0.00
2013-2-19,53.5,39.9,26.4,53.5,12.9,-99.9,100,58,1,30.08,29.64,25,2,25,0.07
2013-2-20,42.5,33.0,27.0,10.9,-12.5,-99.9,43,20,1,30.10,29.86,25,2,25,0.00
2013-2-21,49.5,33.4,22.7,11.1,-24.8,-99.9,60,22,1,30.23,30.05,19,1,19,0.00
2013-2-22,35.9,33.2,29.8,35.9,12.7,-99.9,100,67,1,30.26,30.08,7,0,7,0.03
2013-2-23,53.3,39.6,33.2,47.1,29.5,-99.9,100,81,1,30.08,29.74,6,0,6,0.01
2013-2-24,55.0,42.6,34.7,45.5,-15.2,-99.9,100,43,1,30.00,29.73,22,1,22,0.01
2013-2-25,44.6,32.2,24.5,29.1,-3.4,-99.9,100,52,1,30.16,30.00,12,0,12,0.00
2013-2-26,39.6,33.2,24.5,39.2,18.3,-99.9,100,77,1,30.13,29.55,16,2,16,0.89
2013-2-27,51.3,41.5,35.5,51.3,29.0,-99.9,100,85,1,29.65,29.52,20,2,20,0.01
2013-2-28,41.2,37.3,32.2,41.2,-3.2,-99.9,100,64,1,29.74,29.58,22,2,22,0.01
2013-3-1,39.9,36.2,31.9,39.9,30.1,-99.9,100,89,1,29.84,29.71,12,1,12,0.00
2013-3-2,36.8,32.7,29.3,36.8,32.7,29.1,100,100,100,29.85,29.76,13,1,13,0.00
2013-3-3,40.1,30.7,25.8,33.6,28.4,21.9,100,92,50,29.92,29.80,19,1,19,0.00
2013-3-4,49.4,33.3,22.4,29.8,-5.2,-99.9,100,58,1,30.02,29.91,18,1,18,0.00
2013-3-5,48.3,36.9,29.1,48.3,22.4,-99.9,100,84,1,30.00,29.57,12,0,12,0.16
2013-3-6,34.6,34.3,34.3,34.4,7.9,-99.9,100,56,1,29.56,29.54,1,0,1,0.00
2013-3-7,43.1,31.9,35.0,42.6,9.5,-99.9,100,75,1,30.16,30.09,20,-183,20,0.05
2013-3-8,46.7,38.5,29.0,42.0,25.0,-99.9,100,77,1,30.28,30.12,21,2,21,0.00
2013-3-9,57.3,37.0,22.5,44.6,2.1,-99.9,100,62,1,30.34,30.19,11,0,11,0.00
2013-3-10,65.8,44.0,26.0,48.6,5.3,-99.9,100,56,1,30.27,30.09,17,1,17,0.00
2013-3-11,58.0,46.8,34.7,58.0,36.8,-99.9,100,82,1,30.11,29.76,16,1,16,0.00
2013-3-12,58.0,49.3,36.8,58.0,30.5,-99.9,100,82,1,29.94,29.63,22,2,22,1.28
2013-3-13,47.0,37.1,30.4,46.8,19.9,-99.9,100,75,1,30.07,29.89,21,2,21,0.01
2013-3-14,49.2,35.7,26.7,30.9,9.0,-99.9,100,55,1,30.17,30.03,21,2,21,0.00
2013-3-15,61.5,42.6,23.0,48.0,12.1,-99.9,100,48,1,30.09,29.76,18,1,18,0.00
2013-3-16,73.9,51.8,37.8,73.2,31.0,-99.9,100,73,1,29.76,29.43,33,1,33,0.23
2013-3-17,52.5,39.9,36.2,52.5,1.8,-99.9,100,53,1,30.13,29.74,7,-34,7,0.31
2013-3-18,36.8,33.2,32.9,36.6,8.8,-99.9,100,71,1,30.17,29.83,12,-38,12,0.21
2013-3-19,58.6,43.8,33.5,54.8,19.7,-99.9,100,78,1,29.92,29.70,32,3,32,0.01
2013-3-20,53.2,39.2,26.6,53.2,-36.8,-99.9,100,35,1,29.98,29.68,27,-54,27,0.00
2013-3-21,37.9,30.1,23.6,37.2,-35.7,-99.9,100,38,1,29.91,29.69,22,-33,22,0.00
2013-3-22,48.8,32.7,19.7,48.8,-23.3,-99.9,100,44,1,29.97,29.84,18,1,18,0.00
2013-3-23,59.0,38.3,21.3,59.0,11.5,-99.9,100,68,1,30.01,29.81,14,1,14,0.00
2013-3-24,40.5,34.6,30.9,40.5,-11.5,-99.9,100,59,1,29.87,29.50,11,0,11,0.04
2013-3-25,40.1,35.2,31.2,39.9,4.1,-99.9,100,65,1,29.68,29.45,20,1,20,0.50
2013-3-26,43.9,38.2,32.7,43.9,15.2,-99.9,100,63,1,30.01,29.68,17,1,17,0.06
2013-3-27,44.6,37.3,31.8,44.6,-1.9,-99.9,100,60,1,30.15,30.02,16,1,16,0.00
2013-3-28,50.4,36.4,30.7,41.1,9.3,-99.9,100,56,1,30.21,30.09,17,-58,17,0.00
2013-3-29,60.5,42.5,30.4,47.7,1.1,-99.9,100,62,1,30.25,30.07,18,1,18,0.00
2013-3-30,64.2,43.5,26.6,51.4,-8.0,-99.9,100,56,1,30.21,30.00,16,0,16,0.00
2013-3-31,56.0,40.5,38.5,56.0,18.7,-99.9,100,77,1,30.00,29.68,16,-93,16,0.19
2013-4-1,60.5,41.4,41.3,60.5,7.9,-99.9,100,66,1,29.90,29.72,26,-185,26,0.00
2013-4-2,52.9,29.0,28.4,37.8,-57.6,-99.9,100,17,1,30.10,29.90,20,-314,20,0.00
2013-4-3,56.6,38.5,23.6,56.6,20.1,-99.9,100,76,1,30.28,30.10,18,1,18,0.00
2013-4-4,44.9,34.2,26.1,44.8,4.7,-99.9,100,69,1,30.33,29.96,12,0,12,0.08
2013-4-5,65.2,44.4,33.4,58.1,11.9,-99.9,100,61,1,29.97,29.78,17,0,17,0.50
2013-4-6,63.9,45.9,30.0,43.1,-13.6,-99.9,100,45,1,30.21,29.97,15,1,15,0.00
2013-4-7,71.8,54.6,34.6,60.2,39.6,-99.9,100,70,1,30.14,29.91,20,2,20,0.00
2013-4-8,80.5,61.5,41.8,69.9,5.3,-99.9,100,53,1,30.03,29.86,24,1,24,0.00
2013-4-9,86.3,67.0,48.9,75.4,15.4,-99.9,100,51,1,30.03,29.87,19,1,19,0.00
2013-4-10,92.3,73.9,57.2,79.9,16.3,-99.9,100,54,1,29.93,29.72,19,1,19,0.00
2013-4-11,86.7,71.6,55.1,78.3,40.8,-99.9,100,61,1,29.78,29.57,19,2,19,0.00
2013-4-12,77.7,64.9,55.6,77.7,47.8,-99.9,100,75,1,29.69,29.46,22,2,22,0.64
2013-4-13,73.7,59.0,49.8,48.2,7.6,-99.9,92,37,1,29.88,29.69,25,1,25,0.00
2013-4-14,77.2,59.5,39.9,56.0,2.1,-99.9,100,38,1,30.00,29.88,17,1,17,0.00
2013-4-15,61.3,54.7,49.9,60.4,48.0,-99.9,100,91,1,30.16,29.91,10,0,10,0.61
2013-4-16,74.9,60.7,51.9,72.0,41.4,-99.9,100,75,1,30.20,30.03,14,1,14,0.01
2013-4-17,83.2,65.2,52.8,82.6,44.9,-99.9,100,77,1,30.11,29.97,12,0,12,0.00
2013-4-18,76.8,65.2,56.5,76.7,46.5,-99.9,100,84,1,30.06,29.85,17,1,17,0.00
2013-4-19,71.3,63.4,48.9,71.3,55.4,-99.9,100,89,1,29.85,29.54,22,3,22,0.45
2013-4-20,62.6,49.8,39.5,46.8,-1.0,-99.9,100,48,1,30.23,29.76,21,2,21,0.01
2013-4-21,57.5,45.4,32.9,48.9,31.9,-99.9,100,74,1,30.45,30.24,13,2,13,0.00
2013-4-22,62.0,45.3,30.3,51.7,8.4,-99.9,100,62,1,30.44,30.22,12,1,12,0.00
2013-4-23,71.8,54.8,41.9,64.3,37.5,-99.9,100,71,1,30.26,29.97,13,1,13,0.00
2013-4-24,77.6,57.5,39.3,73.3,37.9,-99.9,100,75,1,30.02,29.74,22,2,22,0.15
2013-4-25,69.8,52.5,39.1,69.8,1.7,-99.9,100,49,1,30.23,29.93,13,1,13,0.00
2013-4-26,70.1,51.1,33.2,56.7,-3.9,-99.9,100,53,1,30.37,30.21,13,1,13,0.00
2013-4-27,72.3,57.1,42.2,61.3,31.5,-99.9,100,60,1,30.29,30.13,12,1,12,0.00
2013-4-28,57.5,51.8,47.7,57.5,29.1,-99.9,100,74,1,30.14,30.01,19,1,19,0.30
2013-4-29,70.1,55.0,47.0,68.1,41.3,-99.9,100,80,1,30.03,29.85,8,0,8,0.03
2013-4-30,70.6,58.7,51.0,67.1,35.8,-99.9,100,79,1,30.14,29.94,13,1,13,0.00
2013-5-1,72.7,59.7,51.1,71.5,34.6,-99.9,100,65,1,30.26,30.12,12,2,12,0.01
2013-5-2,71.8,59.9,48.3,60.7,32.4,-99.9,100,58,1,30.27,30.16,12,0,12,0.00
2013-5-3,66.0,53.7,37.8,65.8,40.7,-99.9,100,86,1,30.24,30.12,13,0,13,0.00
2013-5-4,66.8,52.9,40.1,63.2,35.6,-99.9,100,77,1,30.16,30.02,17,1,17,0.00
2013-5-5,62.4,51.8,36.5,61.0,45.5,-99.9,100,90,1,30.07,29.95,11,1,11,0.00
2013-5-6,54.2,51.2,48.0,54.2,32.4,-99.9,100,80,1,29.99,29.81,18,3,18,1.36
2013-5-7,59.2,52.4,46.4,59.2,51.8,-99.9,100,100,100,29.86,29.78,17,2,17,0.39
2013-5-8,56.7,50.2,43.9,56.7,48.4,-99.9,100,98,1,29.92,29.84,6,0,6,0.46
2013-5-9,80.7,58.2,42.6,78.6,51.0,-99.9,100,90,1,29.97,29.85,13,0,13,0.01
2013-5-10,84.5,62.2,45.8,84.3,46.3,-99.9,100,83,1,29.97,29.78,21,1,21,0.09
2013-5-11,77.2,60.2,52.6,76.7,50.7,-99.9,100,89,1,29.80,29.62,17,1,17,0.10
2013-5-12,65.3,53.0,40.1,57.3,5.3,-99.9,100,59,1,29.98,29.70,21,2,21,0.00
2013-5-13,61.5,46.5,34.1,55.1,2.5,-99.9,100,60,1,30.11,29.96,20,1,20,0.00
2013-5-14,72.0,50.7,30.7,71.8,28.9,-99.9,100,79,1,30.18,29.92,14,1,14,0.00
2013-5-15,93.4,67.0,42.3,93.4,29.3,-99.9,100,69,1,29.93,29.68,21,2,21,0.00
2013-5-16,87.2,71.3,54.7,86.7,13.3,-99.9,100,44,1,29.89,29.73,17,1,17,0.17
2013-5-17,83.6,62.1,50.8,83.4,50.9,-99.9,100,91,1,30.02,29.87,10,0,10,0.18
2013-5-18,75.8,60.8,55.6,75.8,41.8,-99.9,100,83,1,30.09,29.98,13,0,13,0.50
2013-5-19,59.0,56.7,54.1,59.0,53.2,-99.9,100,97,1,30.08,29.98,6,0,6,0.19
2013-5-20,84.7,64.4,56.2,84.5,61.1,-99.9,100,96,1,30.02,29.88,10,0,10,0.05
2013-5-21,90.3,67.5,53.8,90.3,44.5,-99.9,100,80,1,29.95,29.78,11,0,11,0.00
2013-5-22,89.0,66.7,52.9,89.0,46.3,-99.9,100,79,1,29.87,29.75,17,1,17,0.23
2013-5-23,81.8,63.8,55.3,80.5,57.4,-99.9,100,94,1,29.83,29.64,13,1,13,0.31
2013-5-24,61.2,54.3,44.3,61.0,44.9,-99.9,100,88,1,30.11,29.70,22,2,24,0.00
2013-5-25,70.8,53.9,38.5,50.7,-1.6,-99.9,100,42,1,30.19,30.07,20,1,20,0.00
2013-5-26,77.0,57.0,38.9,74.4,-2.4,-99.9,100,50,1,30.18,30.04,12,0,12,0.00
2013-5-27,73.9,55.6,38.3,70.8,41.4,-99.9,100,79,1,30.24,30.07,7,0,7,0.00
2013-5-28,88.2,67.1,47.7,87.2,46.7,-99.9,100,70,1,30.12,29.96,14,1,14,0.00
2013-5-29,92.1,72.1,53.2,83.2,49.1,-99.9,100,64,1,30.07,29.99,13,1,13,0.00
2013-5-30,93.6,70.6,52.5,85.5,35.7,-99.9,100,60,1,30.13,30.03,11,0,11,0.00
2013-5-31,91.6,70.4,51.0,86.9,55.0,-99.9,100,81,1,30.11,29.95,17,1,17,0.00
2013-6-1,90.1,71.2,54.2,88.8,34.2,-99.9,100,67,1,29.98,29.84,17,1,17,0.00
2013-6-2,79.4,67.7,58.7,78.8,55.9,-99.9,100,86,1,29.85,29.77,11,1,11,0.14
2013-6-3,83.6,67.0,56.3,83.2,38.6,-99.9,100,70,1,29.88,29.74,9,0,9,0.05
2013-6-4,84.0,66.0,50.1,78.5,42.4,-99.9,100,69,1,30.02,29.87,11,1,11,0.00
2013-6-5,77.4,66.7,56.5,77.4,21.9,-99.9,100,61,1,30.05,29.92,12,0,12,0.03
2013-6-6,62.4,56.9,53.9,61.5,43.5,-99.9,100,84,1,29.94,29.75,11,0,11,2.54
2013-6-7,74.7,63.6,56.5,74.7,63.0,-99.9,100,99,1,29.76,29.53,14,1,14,0.07
2013-6-8,84.7,64.6,52.8,84.5,48.4,-99.9,100,84,1,30.00,29.71,7,0,7,0.08
2013-6-9,89.0,69.0,53.9,88.8,40.5,-99.9,100,72,1,30.07,29.93,15,0,15,0.94
2013-6-10,83.0,62.3,56.3,82.8,54.6,-99.9,100,94,1,29.97,29.70,22,1,22,0.67
2013-6-11,81.8,66.4,54.5,79.4,60.3,-99.9,100,87,14,29.83,29.75,19,1,19,0.15
2013-6-12,91.8,56.0,54.8,91.6,-1.5,-99.9,100,51,1,29.85,29.73,17,-210,17,0.00
2013-6-13,84.9,67.6,59.3,80.3,50.5,-99.9,100,79,1,29.74,29.50,17,1,17,0.29
2013-6-14,77.6,67.5,56.3,77.6,47.9,-99.9,100,78,1,29.94,29.64,16,1,16,0.00
2013-6-15,86.3,65.1,47.9,80.7,47.9,-99.9,100,72,1,30.04,29.91,10,0,10,0.00
2013-6-16,86.1,68.2,50.8,86.1,53.3,-99.9,100,85,1,29.97,29.85,16,0,16,0.00
2013-6-17,90.7,71.6,58.1,90.3,43.3,-99.9,100,75,1,29.91,29.77,13,1,13,0.02
2013-6-18,67.8,61.4,55.0,67.8,52.3,-99.9,100,91,1,29.84,29.74,11,0,11,2.08
2013-6-19,81.8,60.9,51.1,81.1,47.7,-99.9,100,88,1,30.05,29.84,14,0,14,0.28
2013-6-20,82.6,66.3,55.7,82.4,37.8,-99.9,100,73,1,30.16,30.04,13,1,13,0.00
2013-6-21,87.4,68.8,53.8,87.2,47.0,-99.9,100,83,1,30.20,30.09,10,0,10,0.00
2013-6-22,88.4,68.1,50.8,87.2,46.6,-99.9,100,80,1,30.18,30.02,17,0,17,0.00
2013-6-23,90.7,72.5,58.9,90.7,44.0,-99.9,100,75,1,30.10,29.97,10,0,10,0.01
2013-6-24,93.8,64.8,57.3,93.8,32.3,-99.9,100,71,1,30.08,29.93,9,-100,9,0.05
2013-6-25,91.6,59.6,56.3,91.6,15.2,-99.9,100,58,1,30.03,29.85,12,-190,12,0.00
2013-6-26,92.9,68.6,57.5,92.7,47.4,-99.9,100,78,1,29.88,29.75,18,0,18,0.08
2013-6-27,81.4,66.0,57.2,81.4,59.6,-99.9,100,93,1,29.79,29.58,13,0,13,0.06
2013-6-28,92.3,73.6,60.1,90.3,55.1,-99.9,100,77,1,29.62,29.40,21,1,21,0.00
2013-6-29,86.5,70.9,54.2,86.5,40.8,-99.9,100,73,1,29.61,29.46,12,0,12,0.00
2013-6-30,89.7,70.8,57.6,89.5,46.1,-99.9,100,75,1,29.77,29.58,13,0,13,0.41
2013-7-1,82.4,67.2,58.0,82.2,62.0,-99.9,100,95,1,29.86,29.73,11,0,11,0.09
2013-7-2,71.3,63.7,59.8,71.3,55.6,-99.9,100,92,1,30.08,29.85,10,0,10,1.11
2013-7-3,72.0,63.2,59.2,72.0,62.6,-99.9,100,100,1,30.15,30.06,10,0,10,0.93
2013-7-4,81.6,66.5,59.8,81.4,64.5,-99.9,100,98,1,30.18,30.06,17,0,17,0.92
2013-7-5,87.4,68.6,57.5,85.9,55.0,-99.9,100,86,1,30.17,30.05,13,1,13,0.02
2013-7-6,89.5,71.6,58.4,89.5,55.4,-99.9,100,82,1,30.14,29.99,13,1,13,0.00
2013-7-7,88.0,68.5,59.5,87.8,34.8,-99.9,100,69,1,30.05,29.95,17,1,17,0.12
2013-7-8,86.1,67.7,56.6,85.9,43.0,-99.9,100,75,1,30.09,29.99,20,0,20,0.01
2013-7-9,88.6,71.4,59.5,87.8,37.6,-99.9,100,71,1,30.06,29.94,10,0,10,0.00
2013-7-10,87.2,66.5,60.1,85.5,38.9,-99.9,100,73,1,29.97,29.84,12,0,12,0.70
2013-7-11,87.2,68.3,59.0,83.8,44.7,-99.9,100,71,1,29.87,29.76,7,0,7,0.66
2013-7-12,73.7,65.2,57.6,73.7,56.1,-99.9,100,92,1,29.98,29.80,16,2,16,0.01
2013-7-13,83.2,68.3,59.3,77.9,44.6,-99.9,100,74,1,30.13,29.97,9,0,9,0.05
2013-7-14,90.7,72.1,59.5,90.5,51.5,-99.9,100,77,1,30.25,30.13,12,1,12,0.00
2013-7-15,148.9,38.0,59.8,88.6,-25.0,-99.9,100,72,1,30.25,29.98,7,0,7,0.00
2013-7-16,148.9,53.8,100.7,99.9,-25.3,-99.9,100,72,1,30.09,29.95,19,0,19,0.00
2013-7-17,148.9,54.9,102.3,99.9,-14.6,-99.9,100,74,1,30.04,29.91,17,0,17,0.00
2013-7-18,148.9,53.9,100.7,99.9,-23.0,-99.9,100,66,1,29.95,29.80,8,0,8,0.00
2013-7-19,148.9,53.6,104.6,99.9,-20.0,-99.9,100,72,1,29.84,29.66,11,0,11,0.01
2013-7-20,148.9,45.5,108.8,99.9,-33.8,-99.9,100,71,1,29.72,29.61,16,0,16,0.00
2013-7-21,148.9,54.1,109.3,99.9,-21.9,-99.9,100,80,1,29.72,29.64,16,0,16,0.27
2013-7-22,148.9,81.3,105.4,99.9,10.3,-99.9,100,66,1,29.72,29.55,16,0,16,0.28
2013-7-23,148.9,52.4,106.2,99.9,-17.7,-99.9,100,80,1,29.58,29.46,11,0,11,0.00
2013-7-24,148.9,55.8,106.5,99.9,-18.2,-99.9,100,68,1,29.65,29.47,16,1,16,0.03
2013-7-25,-200.0,0.0,200.0,-99.9,-99.9,-99.9,100,64,1,29.75,29.60,13,1,13,0.00
2013-7-26,148.9,17.5,32.0,99.9,-43.7,-99.9,100,64,1,29.84,29.72,6,0,10,0.00
2013-7-27,148.3,115.4,32.0,99.9,56.6,-99.9,100,70,1,29.80,29.71,10,0,10,0.24
2013-7-28,148.9,50.9,103.8,99.9,-11.0,-99.9,100,79,1,29.76,29.65,11,0,11,0.02
2013-7-29,148.9,28.9,118.6,99.9,-64.3,-99.9,100,64,1,29.90,29.71,10,0,10,0.00
2013-7-30,148.9,8.8,133.9,99.9,-88.9,-99.9,100,60,1,29.99,29.84,8,0,8,0.00
2013-7-31,148.9,52.7,119.7,99.9,-39.1,-99.9,100,70,1,29.91,29.74,7,0,7,0.13
2013-8-1,148.9,58.6,112.2,99.9,-23.9,-99.9,100,53,1,29.74,29.58,14,0,14,0.07
2013-8-2,148.9,34.9,109.1,99.9,-52.2,-99.9,100,70,1,29.77,29.62,14,0,14,0.01
2013-8-3,148.9,35.8,124.3,99.9,-47.9,-99.9,100,74,1,29.76,29.64,10,0,10,0.00
2013-8-4,148.9,37.5,127.8,99.9,-48.5,-99.9,100,70,1,29.78,29.66,16,1,16,0.00
2013-8-5,-200.0,0.0,200.0,-99.9,-99.9,-99.9,100,74,1,29.84,29.71,10,0,10,0.00
2013-8-6,148.9,18.6,144.1,99.9,-82.2,-99.9,100,78,1,29.75,29.68,10,0,10,0.10
2013-8-7,148.9,57.8,121.5,99.9,-24.9,-99.9,100,77,1,29.81,29.75,10,0,10,0.02
2013-8-8,148.9,77.4,116.7,99.9,1.9,-99.9,100,79,1,29.80,29.73,9,0,9,0.16
2013-8-9,148.9,53.7,112.9,99.9,-22.6,-99.9,100,62,1,29.76,29.68,18,1,18,0.00
2013-8-10,148.9,36.6,119.7,99.9,-53.7,-99.9,100,71,1,29.81,29.71,11,0,11,0.00
2013-8-11,148.9,54.9,128.2,99.9,-26.0,-99.9,100,79,1,29.87,29.74,8,0,8,0.33
2013-8-12,148.3,57.0,111.6,99.9,-19.7,-99.9,100,71,1,29.84,29.65,11,0,11,0.01
2013-8-13,148.9,55.7,116.3,99.9,-28.2,-99.9,100,65,1,29.65,29.51,9,0,11,0.03
2013-8-14,-200.0,0.0,200.0,-99.9,-99.9,-99.9,100,62,1,29.82,29.56,14,1,14,0.00
2013-8-15,-200.0,0.0,200.0,-99.9,-99.9,-99.9,100,82,1,29.91,29.79,7,0,7,0.00
2013-8-16,148.9,9.3,136.8,99.9,-88.0,-99.9,100,76,1,29.91,29.82,8,0,8,0.00
2013-8-17,148.9,10.4,130.3,99.9,-89.1,-99.9,100,64,1,29.99,29.89,7,0,7,0.16
2013-8-18,148.9,70.1,104.1,99.9,10.0,-99.9,100,85,1,30.00,29.89,11,1,11,0.49
2013-8-19,148.9,70.2,113.8,99.9,3.3,-99.9,100,85,1,29.97,29.81,7,0,7,0.06
2013-8-20,148.9,54.1,111.9,99.9,-28.1,-99.9,100,75,1,29.94,29.84,8,0,8,0.00
2013-8-21,148.9,48.9,117.3,99.9,-37.1,-99.9,100,76,1,29.98,29.83,10,0,10,0.05
2013-8-22,148.9,72.4,107.7,99.9,10.6,-99.9,100,80,1,29.90,29.75,12,0,12,0.28
2013-8-23,148.9,85.9,32.0,99.9,47.9,-99.9,100,80,1,29.90,29.73,21,1,21,1.24
2013-8-24,148.9,58.4,32.0,99.9,-8.4,-99.9,100,76,1,30.07,29.88,11,0,11,0.01
2013-8-25,148.9,35.7,124.0,99.9,-54.1,-99.9,100,69,1,30.16,30.01,7,0,7,0.00
2013-8-26,148.9,35.0,113.2,99.9,-49.0,-99.9,100,77,1,30.06,29.78,11,0,11,0.00
2013-8-27,148.9,42.1,117.0,99.9,-41.8,-99.9,100,77,1,29.81,29.68,12,0,12,0.00
2013-8-28,148.9,87.1,106.5,99.9,34.3,-99.9,100,81,1,29.76,29.58,8,0,8,0.33
2013-8-29,148.3,47.8,102.8,99.9,-28.4,-99.9,100,69,1,29.79,29.61,14,2,14,0.01
2013-8-30,148.9,77.5,32.0,99.9,27.0,-99.9,100,74,1,29.83,29.63,11,1,11,0.00
2013-8-31,148.9,63.1,32.0,99.9,-14.7,-99.9,100,79,1,29.69,29.56,10,0,10,0.03
2013-9-1,148.9,75.2,107.9,99.9,13.0,-99.9,100,81,1,29.66,29.53,8,0,8,0.49
2013-9-2,148.9,56.3,107.9,99.9,-23.2,-99.9,100,64,1,29.65,29.52,10,0,10,0.00
2013-9-3,148.9,49.0,107.1,99.9,-42.1,-99.9,100,67,1,29.69,29.53,13,0,13,0.00
2013-9-4,148.9,21.2,111.3,99.9,-77.4,-99.9,100,68,1,29.86,29.69,12,0,12,0.00
2013-9-5,148.9,39.7,109.1,99.9,-57.7,-99.9,100,60,1,29.89,29.75,12,0,12,0.00
2013-9-6,148.9,4.5,142.2,99.9,-93.7,-99.9,100,72,1,29.94,29.81,11,0,11,0.00
2013-9-7,148.9,15.7,122.9,99.9,-80.7,-99.9,100,73,1,29.86,29.67,11,0,11,0.00
2013-9-8,148.9,42.9,113.5,99.9,-46.5,-99.9,100,73,1,29.75,29.63,10,0,10,0.00
2013-9-9,148.9,16.0,122.9,99.9,-82.2,-99.9,100,80,1,29.89,29.72,8,0,8,0.00
2013-9-10,148.3,83.1,50.0,99.9,63.8,41.8,100,83,1,29.98,29.87,2,0,10,0.00
2013-9-11,148.3,83.9,50.0,99.9,62.6,26.6,100,77,1,29.96,29.76,0,0,8,0.00
2013-9-12,146.5,79.6,50.0,99.9,60.3,-10.5,100,72,1,29.77,29.54,2,0,14,1.10
2013-9-13,147.7,68.7,32.0,99.9,58.2,18.2,100,59,1,29.72,29.51,4,1,18,0.00
2013-9-14,148.9,13.5,32.0,99.9,-64.5,-99.9,100,70,1,29.86,29.65,11,0,11,0.00
2013-9-15,148.9,34.8,32.0,99.9,-51.0,-99.9,100,62,1,30.00,29.80,13,1,13,0.00
2013-9-16,148.9,62.0,32.0,99.9,-15.4,-99.9,100,76,1,29.99,29.81,17,0,17,0.00
2013-9-17,148.9,75.5,111.9,99.9,5.5,-99.9,100,58,1,30.10,29.95,2,0,2,0.00
2013-9-18,148.9,40.4,110.8,99.9,-44.8,-99.9,100,78,1,30.08,29.89,8,0,8,0.00
2013-9-19,148.9,44.6,122.9,99.9,-45.8,-99.9,100,61,1,29.92,29.78,11,0,11,0.01
2013-9-20,148.9,55.3,116.3,99.9,-34.5,-99.9,100,61,1,29.82,29.65,10,0,10,0.00
2013-9-21,148.9,107.2,106.5,99.9,24.8,-99.9,100,64,1,29.69,29.46,7,0,18,0.52
2013-9-22,148.9,51.5,98.7,99.9,-14.6,-99.9,100,78,1,29.69,29.52,10,0,10,0.01
2013-9-23,148.9,11.9,124.0,99.9,-85.6,-99.9,100,80,1,29.81,29.65,11,0,11,0.00
2013-9-24,148.9,47.1,116.7,99.9,-31.9,-99.9,100,85,1,29.85,29.65,6,0,6,0.00
2013-9-25,148.9,55.3,108.2,99.9,-24.2,-99.9,100,55,1,29.73,29.61,8,0,8,0.00
2013-9-26,148.9,50.2,112.9,99.9,-34.0,-99.9,100,71,1,29.79,29.63,10,0,10,0.00
2013-9-27,148.3,40.9,109.9,99.9,-37.9,-99.9,100,72,1,29.95,29.78,5,0,7,0.00
2013-9-28,148.9,15.1,121.8,99.9,-81.9,-99.9,100,78,1,30.01,29.90,5,0,5,0.00
2013-9-29,148.9,41.9,117.6,99.9,-40.6,-99.9,100,64,1,29.92,29.76,8,0,8,0.00
2013-9-30,148.3,40.6,109.3,99.9,-39.6,-99.9,100,70,1,29.85,29.69,3,0,7,0.00
2013-10-1,148.9,47.2,112.2,99.9,-29.8,-99.9,100,71,1,29.86,29.74,7,0,7,0.00
2013-10-2,148.9,48.1,106.5,99.9,-28.6,-99.9,100,69,1,29.91,29.76,10,0,10,0.00
2013-10-3,148.9,47.9,109.3,99.9,-27.9,-99.9,100,80,1,29.91,29.79,6,0,6,0.00
2013-10-4,148.9,58.3,105.4,99.9,-16.3,-99.9,100,69,1,29.92,29.78,8,0,8,0.00
2013-10-5,148.9,58.2,102.0,99.9,-15.7,-99.9,100,71,1,29.93,29.77,10,0,10,0.01
2013-10-6,148.3,51.8,106.8,99.9,-18.7,-99.9,100,79,1,29.82,29.60,10,0,13,0.00
2013-10-7,148.9,62.9,104.1,99.9,-3.7,-99.9,100,86,1,29.84,29.52,16,0,16,1.56
2013-10-8,148.9,26.9,114.1,99.9,-61.9,-99.9,100,77,1,29.99,29.78,19,2,19,0.00
2013-10-9,148.9,1.5,142.7,99.9,-97.8,-99.9,100,83,1,30.00,29.89,16,3,16,0.01
2013-10-10,148.9,35.1,121.8,99.9,-57.1,-99.9,100,77,1,29.89,29.68,16,2,16,0.18
2013-10-11,148.9,4.1,147.1,-99.9,-99.9,-99.9,100,59,1,29.72,29.64,12,1,12,0.01
2013-10-12,148.9,45.5,121.1,99.9,-35.9,-99.9,100,75,1,29.87,29.69,14,2,14,0.03
2013-10-13,148.9,35.4,105.7,99.9,-52.3,-99.9,100,73,1,30.05,29.83,14,2,14,0.48
2013-10-14,148.9,51.0,102.0,99.9,-10.7,-99.9,100,99,1,30.08,29.93,8,0,8,0.02
2013-10-15,148.9,43.3,103.8,99.9,-39.1,-99.9,100,76,1,29.98,29.79,6,0,6,0.00
2013-10-16,148.9,55.7,107.9,99.9,-15.7,-99.9,100,72,1,29.82,29.65,11,0,11,0.00
2013-10-17,148.3,77.4,105.4,99.9,15.8,-99.9,100,67,1,29.67,29.51,16,1,17,0.03
2013-10-18,-200.0,0.0,200.0,-99.9,-99.9,-99.9,100,70,1,29.73,29.63,14,0,14,0.01
2013-10-19,148.3,39.5,113.2,99.9,-49.7,-99.9,100,69,1,29.69,29.50,16,0,16,0.00
2013-10-20,-200.0,0.0,200.0,-99.9,-99.9,-99.9,100,66,1,29.79,29.61,13,0,13,0.00
2013-10-21,148.9,14.9,114.8,99.9,-79.1,-99.9,100,72,1,29.88,29.64,13,0,13,0.00
2013-10-22,148.9,34.6,107.4,99.9,-46.5,-99.9,100,77,1,29.66,29.50,16,1,16,0.00
2013-10-23,-200.0,0.0,200.0,-99.9,-99.9,-99.9,100,82,1,29.64,29.36,21,1,21,0.03
2013-10-24,-200.0,0.0,200.0,-99.9,-99.9,-99.9,100,67,1,29.77,29.65,14,1,14,0.00
2013-10-25,50.0,35.1,32.0,99.9,40.3,32.0,100,71,6,30.01,29.83,3,0,16,0.00
2013-10-26,32.0,32.0,32.0,32.0,32.0,32.0,100,49,1,30.01,29.66,4,1,20,0.00
2013-10-27,32.0,32.0,32.0,32.0,32.0,32.0,100,54,1,29.80,29.67,3,0,20,0.00
2013-10-28,148.9,18.3,32.0,99.9,-53.8,-99.9,100,66,1,29.97,29.80,6,0,6,0.03
2013-10-29,148.9,56.2,106.5,99.9,-9.9,-99.9,100,83,1,30.10,29.94,7,0,7,0.00
2013-10-30,148.3,44.1,116.7,99.9,-41.8,-99.9,100,76,1,29.97,29.82,2,0,5,0.09
2013-10-31,148.9,57.7,103.1,99.9,-5.1,-99.9,100,72,1,29.92,29.51,25,2,25,0.01
2013-11-1,-200.0,0.0,200.0,-99.9,-99.9,-99.9,100,70,1,29.50,29.29,25,2,25,0.05
2013-11-2,148.9,49.8,123.3,99.9,-45.7,-99.9,100,50,1,29.47,29.38,3,0,3,0.00
2013-11-3,50.0,40.9,32.0,99.9,45.9,32.0,100,49,1,30.08,29.60,4,1,14,0.00
2013-11-4,32.0,32.0,32.0,32.0,32.0,32.0,100,73,1,30.27,30.07,4,0,11,0.00
2013-11-5,32.0,32.0,32.0,32.0,32.0,32.0,100,82,1,30.28,30.13,1,0,6,0.00
2013-11-6,32.0,32.0,32.0,32.0,32.0,32.0,100,87,1,30.13,29.77,5,1,14,0.00
2013-11-7,148.3,48.1,32.0,99.9,-19.5,-99.9,100,52,1,29.83,29.62,13,-10,17,0.00
2013-11-8,-200.0,0.0,200.0,-99.9,-99.9,-99.9,100,39,1,30.00,29.80,21,-34,21,0.00
2013-11-9,-200.0,0.0,200.0,-99.9,-99.9,-99.9,100,57,1,30.03,29.78,19,1,19,0.00
2013-11-10,-200.0,0.0,200.0,-99.9,-99.9,-99.9,100,10,1,29.95,29.72,22,2,22,0.00
2013-11-11,-200.0,0.0,200.0,-99.9,-99.9,-99.9,100,66,1,30.01,29.91,11,0,12,0.00
2013-11-12,32.0,32.0,32.0,32.0,32.0,32.0,100,25,1,30.10,29.66,7,2,21,0.00
2013-11-13,32.0,32.0,32.0,32.0,32.0,32.0,100,39,1,30.18,30.07,3,1,11,0.00
2013-11-14,32.0,32.0,32.0,32.0,32.0,32.0,100,63,1,30.09,29.93,3,0,11,0.00
2013-11-15,32.0,32.0,32.0,32.0,32.0,32.0,100,73,1,29.97,29.83,2,0,7,0.21
2013-11-16,148.9,105.9,32.0,99.9,52.6,-99.9,100,77,1,30.00,29.91,4,0,5,0.03
2013-11-17,148.9,88.2,103.3,99.9,19.7,-99.9,100,70,1,29.99,29.55,17,1,17,0.09
2013-11-18,148.9,14.6,111.3,99.9,-76.7,-99.9,100,52,1,29.68,29.48,27,2,27,0.04
2013-11-19,-200.0,0.0,200.0,-99.9,-99.9,-99.9,72,22,1,30.02,29.67,14,1,14,0.00
2013-11-20,-200.0,0.0,200.0,-99.9,-99.9,-99.9,100,56,7,30.16,30.01,12,1,12,0.00
2013-11-21,-200.0,0.0,200.0,-99.9,-99.9,-99.9,100,91,1,30.19,30.06,5,0,5,0.00
2013-11-22,-200.0,0.0,200.0,-99.9,-99.9,-99.9,100,68,1,30.06,29.72,14,1,14,0.00
2013-11-23,-200.0,0.0,200.0,-99.9,-99.9,-99.9,100,61,1,29.92,29.74,21,1,21,0.00
2013-11-24,-200.0,0.0,200.0,-99.9,-99.9,-99.9,100,39,1,30.19,29.92,17,-397,18,0.00
2013-11-25,-200.0,0.0,200.0,-99.9,-99.9,-99.9,87,27,1,30.18,30.01,8,-281,8,0.00
2013-11-26,148.9,48.5,98.5,99.9,-19.8,-99.9,100,65,1,30.01,29.34,6,0,6,1.91
2013-11-27,148.9,46.5,94.7,99.9,-16.8,-99.9,100,80,1,29.77,29.32,22,1,22,0.09
2013-11-28,-200.0,0.0,200.0,-99.9,-99.9,-99.9,100,46,1,30.10,29.78,11,0,11,0.00
2013-11-29,-200.0,0.0,200.0,-99.9,-99.9,-99.9,100,72,1,30.32,30.08,3,0,10,0.00
2013-11-30,-200.0,0.0,200.0,-99.9,-99.9,-99.9,100,74,1,30.33,30.02,8,-104,8,0.00
2013-12-1,-200.0,0.0,200.0,-99.9,-99.9,-99.9,100,85,1,30.02,29.67,0,-17,0,0.00
2013-12-2,-200.0,0.0,200.0,-99.9,-99.9,-99.9,100,82,1,29.68,29.50,1,0,1,0.00
2013-12-3,148.9,15.7,121.1,99.9,-78.8,-99.9,100,91,1,29.65,29.52,7,0,7,0.00
2013-12-4,148.9,19.8,124.0,99.9,-76.4,-99.9,100,81,1,29.76,29.64,6,0,6,0.00
2013-12-5,148.9,77.9,103.3,99.9,4.6,-99.9,100,64,1,29.82,29.66,17,1,17,0.00
2013-12-6,136.3,108.3,98.0,99.9,65.7,-99.9,100,64,1,29.90,29.63,16,1,16,1.09
2013-12-7,148.9,48.9,96.3,99.9,-28.1,-99.9,100,75,1,30.19,29.90,11,1,11,0.08
2013-12-8,148.9,59.8,109.3,99.9,-26.3,-99.9,100,55,1,30.14,29.96,11,1,11,0.00
2013-12-9,109.3,99.9,94.9,99.9,82.6,-99.9,100,88,1,29.96,29.81,9,0,9,0.73
2013-12-10,148.9,58.5,93.4,99.9,6.7,-99.9,100,89,1,29.98,29.75,22,-10,22,0.43
2013-12-11,-200.0,0.0,200.0,-99.9,-99.9,-99.9,100,40,1,30.06,29.90,16,-128,16,0.01
2013-12-12,-200.0,0.0,200.0,-99.9,-99.9,-99.9,50,16,1,30.06,29.92,20,-68,20,0.00
2013-12-17,50.0,50.0,50.0,99.9,56.6,36.0,100,54,1,29.88,29.60,5,2,24,0.04
2013-12-18,50.0,50.0,50.0,99.9,53.6,46.5,100,78,1,29.89,29.79,5,1,24,0.00
2013-12-19,50.0,50.0,50.0,99.9,57.4,50.0,100,73,1,29.82,29.70,5,1,14,0.00
2013-12-20,50.0,50.0,50.0,99.9,63.8,19.2,100,53,1,29.75,29.63,5,1,19,0.00
2013-12-21,148.9,61.1,50.0,99.9,61.8,46.5,100,61,1,29.74,29.56,6,2,25,1.25
2013-12-22,116.0,102.3,97.8,99.9,90.2,-1.7,100,82,1,29.84,29.70,2,0,10,1.32
2013-12-23,148.3,44.3,102.0,99.9,-14.4,-99.9,100,83,1,29.96,29.80,10,0,17,1.01
2013-12-24,-200.0,0.0,200.0,-99.9,-99.9,-99.9,100,55,1,30.13,29.87,22,1,22,0.08
2013-12-25,-200.0,0.0,200.0,-99.9,-99.9,-99.9,100,60,1,30.18,29.99,12,0,12,0.01
2013-12-26,-200.0,0.0,200.0,-99.9,-99.9,-99.9,100,63,1,29.99,29.91,19,0,19,0.00
2014-1-2,34.9,32.8,31.1,32.3,26.7,-99.9,91,85,82,30.02,29.90,11,-27,0,0.00